LFBHLFRS

Guest
Details From LFBH - La Rochelle Laleu
To LFRS - Nantes_Atlantique
Flight Number -
Tags generated
Created
Modified
Stats Distance 61 nm / 113 km
Max Altitude 7,400 ft / 2,256 m
Waypoints 3
Social Downloads 3
Likes 0
Share

Download

Looking for another format? Having issues loading an existing format? Contact us
Advertisement - Login to hide

Notes

Basic altitude profile: - Ascent Rate: 2500ft/min - Ascent Speed: 250kts - Cruise Altitude: 35000ft - Cruise Speed: 420kts - Descent Rate: 1500ft/min - Descent Speed: 250kts Options: - Use NATs: yes - Use PACOTS: yes - Use low airways: yes - Use high airways: yes

Route

LFBH TIRAV LFRS

ID Type Via Altitude (ft/m) Position (lat/lon) Dist (leg/tot) Name
O LFBH APT - 0 / 0 46.17924 / -1.19641 - / 0 nm La Rochelle Laleu
TIRAV FIX - 7,400 / 2,256 46.59889 / -1.39083 26 / 26 nm
O LFRS APT - 0 / 0 47.15604 / -1.61119 34 / 61 nm Nantes_Atlantique

Altitude Profile

Advertisement - Login to hide

LFBH

Details ICAO LFBH (LRH)
Name La Rochelle Laleu
Region France
Timezone Europe/Paris (UTC+2.0)
Stats Elevation 74 ft / 23 m (AMSL)
Location 46.179200° -1.196360°
Runways 1
Magnetic Variation 0.170° E

METAR

LFBH 282300Z AUTO 26006KT CAVOK 18/14 Q1018 NOSIG

Decode

TAF

TAF LFBH 281700Z 2818/2918 26010KT 9999 BKN035 BECMG 2818/2820 27005KT CAVOK PROB40 TEMPO 2903/2908 BKN020 PROB30 2903/2905 0800 BCFG VV///

Decode

Departure Runways

ID Width Length Bearing (true/mag) Surface Threshold Overrun Markings Lighting
09 148 ft / 45 m 7,383 ft / 2,250 m 92.43° / 92.26° ASPHALT 1,033 ft / 315 m 0 ft / 0 m APP EDGE THRESHOLD ALSF-I REIL-OMNI
27 148 ft / 45 m 7,383 ft / 2,250 m 272.45° / 272.28° ASPHALT 1,532 ft / 467 m 0 ft / 0 m PREC-APP EDGE THRESHOLD MALS REIL-OMNI

LFRS

Details ICAO LFRS (NTE)
Name Nantes Atlantique Airport
Region France
Timezone Europe/Paris (UTC+2.0)
Stats Elevation 89 ft / 27 m (AMSL)
Location 47.153200° -1.610720°
Runways 1
Magnetic Variation 0.025° W

METAR

LFRS 282300Z AUTO 23005KT CAVOK 15/13 Q1017 NOSIG

Decode

TAF

TAF LFRS 281700Z 2818/2924 26012KT 9999 SCT035 BECMG 2900/2902 20004KT

Decode

Destination Runways

ID Width Length Bearing (true/mag) Surface Threshold Overrun Markings Lighting
03 147 ft / 45 m 9,519 ft / 2,901 m 27.33° / 27.36° ASPHALT 0 ft / 0 m 0 ft / 0 m PREC-APP CENTERLINE EDGE THRESHOLD ALSF-II TDZ REIL-OMNI
21 147 ft / 45 m 9,519 ft / 2,901 m 207.35° / 207.37° ASPHALT 696 ft / 212 m 0 ft / 0 m APP CENTERLINE EDGE THRESHOLD RAIL REIL-OMNI

Approach Navaids

Runway Type Ident Frequency Range Bearing (true/mag) Slope Elevation
03 GS NT 109.90 MHz 10 nm / 19 km 27.35° / 27.37 ° 3.00° 89 ft / 27 m (AMSL)
03 DME NT 109.90 MHz 27 nm / 50 km - - 89 ft / 27 m (AMSL)
03 LOC-ILS NT 109.90 MHz 18 nm / 33 km 27.35° / 27.37 ° - 89 ft / 27 m (AMSL)

Popular Alternatives